CheckWX is a tool to help pilots better visualize weather data.  It is not intended as a substitute for an official pre-flight weather briefing.

17:32:09 UTC

TAPA TAF
V.C. Bird International Airport
St. George, Antigua and Barbuda
TAF TAPA 241100Z 2412/2512 10012KT 9999 SCT020

Mar-24@
12:00 UTC

Mar-24 @ 12:00 UTC

Mar-25@
12:00 UTC

Mar-25 @ 12:00 UTC

TAF TAPA 241100Z 2412/2512 10012KT 9999 SCT020
Wind
  • 100° at 12 KTS
Cloud Levels
  • Scattered at 2,000' AGL